AirNav   Duncan Aviation - Near you to keep you 
flying
 
 375 users online  

FL13 Spencer's Airpark
Middleburg, Florida, USA

GOING TO MIDDLEBURG?


FAA INFORMATION EFFECTIVE 15 JULY 2021

Location

FAA Identifier: FL13
Lat/Long: 30-04-06.8630N 081-57-38.3740W
30-04.114383N 081-57.639567W
30.0685731,-81.9606594
(estimated)
Elevation: 150 ft. / 46 m (estimated)
Variation: 03W (1985)
From city: 5 miles W of MIDDLEBURG, FL
Time zone: UTC -4 (UTC -5 during Standard Time)
Zip code: 32068

Airport Operations

Airport use: Private use. Permission required prior to landing
Activation date: 03/1976
Control tower: no
ARTCC: JACKSONVILLE CENTER
FSS: GAINESVILLE FLIGHT SERVICE STATION
Attendance: UNATNDD
Wind indicator: yes
Segmented circle: no

Airport Communications

WX AWOS-3 at VQQ (10 nm NE): 125.275 (904-778-6934)
WX AWOS-3 at 42J (14 nm S): 124.275 (352-473-8273)
WX AWOS-3 at HEG (15 nm NE): 119.275 (904-695-0334)
WX AWOS-3 at NIP (18 nm NE): 119.275

Nearby radio navigation aids

VOR radial/distance  VOR name  Freq  Var
VQQr206/(9.4)CECIL VOR117.9003W
GNVr040/27.8GATORS VORTAC116.2004W
CRGr238/28.4CRAIG VORTAC114.5003W
SGJr288/33.4ST AUGUSTINE VOR/DME109.4006W

 
NDB name  Hdg/Dist  Freq  Var  ID
REYNOLDS298/16.933807WRYD .-. -.-- -..
LAKE CITY105/32.820403WLCQ .-.. -.-. --.-

Airport Services

Runway Information

Runway 9/27

Dimensions: 2800 x 75 ft. / 853 x 23 m
Surface: turf
RUNWAY 9  RUNWAY 27
Traffic pattern: leftleft
Obstructions: treestrees

Airport Ownership and Management from official FAA records

Ownership: Privately-owned
Owner: PHILLIP SPENCER, JR.
642 NELSON DRIVE SOUTH
ORANGE PARK, FL 32073
Manager: PHILLIP SPENCER, JR.
642 NELSON DRIVE SOUTH
ORANGE PARK, FL 32073
Phone 904-264-6813

Airport Operational Statistics

Aircraft based on the field: 2
Single engine airplanes: 2
    

Additional Remarks

FOR CD CTC JACKSONVILLE APCH AT 904-741-0284.

Instrument Procedures

There are no published instrument procedures at FL13.

Some nearby airports with instrument procedures:

KVQQ - Cecil Airport (10 nm NE)
42J - Keystone Heights Airport (14 nm S)
KHEG - Herlong Recreational Airport (15 nm NE)
KNIP - Jacksonville Naval Air Station (Towers Field) (18 nm NE)
KGNV - Gainesville Regional Airport (28 nm SW)
 
Loc | Ops | Rwys | IFR | FBO | Links
Com | Nav | Svcs | Stats | Notes
Area around FL13 (Spencer's Airpark)
 
Road maps at: MapQuest Bing Google
 
Aerial photo
No photo
 
Sectional chart

 
Airport distance calculator
Flying to Spencer's Airpark? Find the distance to fly.

From to FL13

Sunrise and sunset
Times for 05-Aug-2021
 Local
(UTC-4)
 Zulu
(UTC)
Morning civil twilight06:2410:24
Sunrise06:5010:50
Sunset20:1700:17
Evening civil twilight20:4300:43

Current date and time
Zulu (UTC)  05-Aug-2021 08:11:26
Local (UTC-4)  05-Aug-2021 04:11:26
 
METAR
KVQQ 
10nm NE 
050755Z AUTO 00000KT 10SM BKN008 BKN014 OVC027 24/24 A2998 RMK AO2
K42J 
14nm S 
050755Z AUTO 18010KT 10SM OVC005 24/24 A2999 RMK A01
KHEG 
15nm NE 
050755Z AUTO 10004KT 1 1/2SM -DZ SCT004 OVC010 24/24 A3001 RMK AO2 LTG DSNT SW AND W
KNIP 
18nm NE 
050743Z 13007KT 10SM FEW007 BKN016 24/24 A3000 RMK AO2 RAB06E16 P0000 T02440244
TAF
KVQQ 
10nm NE 
050539Z 0506/0606 00000KT 6SM -RA BR BKN006 OVC012 TEMPO 0506/0510 3SM BR OVC003 FM051400 17006KT 6SM SHRA BKN015 OVC025 FM051600 20008KT 5SM SHRA VCTS BKN025CB OVC040 TEMPO 0517/0521 VRB15G25KT 2SM +TSRA BKN015CB OVC025 FM060100 18004KT 6SM -RA BR BKN025 OVC040 FM060400 00000KT P6SM BKN025 BKN040 OVC100
KNIP 
18nm NE 
0423/0523 12008KT 9999 VCSH SCT015 BKN030 BKN250 QNH2997INS FM050300 VRB05KT 9999 VCSH BKN020 OVC050 QNH2995INS FM050800 19006KT 9999 VCSH BKN010 OVC030 QNH2996INS FM051600 24007KT 9999 VCTS SCT020 BKN030CB OVC250 QNH3000INS T24/0511Z T27/0521Z COR 2330 FN20077
NOTAMs
Click for the latest NOTAMs
NOTAMs are issued by the DoD/FAA and will open in a separate window not controlled by AirNav.

 

 
 

Would you like to see your business listed on this page?

 If your business provides an interesting product or service to pilots, flight crews, aircraft, or users of the Spencer's Airpark, you should consider listing it here.  To start the listing process, click on the button below
 
Add a business
 

Other Pages about Spencer's Airpark

Update a link
 
Copyright © AirNav, LLC. All rights reserved. Privacy Policy  Contact